sensor_id;sensor_type;location;lat;lon;timestamp;pressure;altitude;pressure_sealevel;temperature
76583;BMP280;65462;52.148;7.940;2023-04-01T00:01:29;98504.03;;;10.40
76583;BMP280;65462;52.148;7.940;2023-04-01T00:03:55;98498.75;;;10.40
76583;BMP280;65462;52.148;7.940;2023-04-01T00:06:22;98502.94;;;10.41
76583;BMP280;65462;52.148;7.940;2023-04-01T00:08:47;98508.22;;;10.41
76583;BMP280;65462;52.148;7.940;2023-04-01T00:11:13;98506.34;;;10.42
76583;BMP280;65462;52.148;7.940;2023-04-01T00:13:38;98502.94;;;10.41
76583;BMP280;65462;52.148;7.940;2023-04-01T00:16:04;98502.13;;;10.37
76583;BMP280;65462;52.148;7.940;2023-04-01T00:18:30;98502.13;;;10.37
76583;BMP280;65462;52.148;7.940;2023-04-01T00:20:55;98496.84;;;10.37
76583;BMP280;65462;52.148;7.940;2023-04-01T00:23:21;98497.63;;;10.38
76583;BMP280;65462;52.148;7.940;2023-04-01T00:25:47;98493.09;;;10.38
76583;BMP280;65462;52.148;7.940;2023-04-01T00:28:17;98484.03;;;10.39
76583;BMP280;65462;52.148;7.940;2023-04-01T00:30:43;98489.34;;;10.36
76583;BMP280;65462;52.148;7.940;2023-04-01T00:33:09;98490.06;;;10.36
76583;BMP280;65462;52.148;7.940;2023-04-01T00:35:34;98489.34;;;10.36
76583;BMP280;65462;52.148;7.940;2023-04-01T00:38:00;98488.59;;;10.35
76583;BMP280;65462;52.148;7.940;2023-04-01T00:40:29;98483.31;;;10.35
76583;BMP280;65462;52.148;7.940;2023-04-01T00:42:55;98485.53;;;10.33
76583;BMP280;65462;52.148;7.940;2023-04-01T00:45:35;98480.66;;;10.35
76583;BMP280;65462;52.148;7.940;2023-04-01T00:48:06;98474.25;;;10.33
76583;BMP280;65462;52.148;7.940;2023-04-01T00:50:33;98482.53;;;10.35
76583;BMP280;65462;52.148;7.940;2023-04-01T00:53:00;98491.19;;;10.32
76583;BMP280;65462;52.148;7.940;2023-04-01T00:55:27;98487.06;;;10.34
76583;BMP280;65462;52.148;7.940;2023-04-01T00:57:55;98487.81;;;10.35
76583;BMP280;65462;52.148;7.940;2023-04-01T01:00:22;98488.16;;;10.33
76583;BMP280;65462;52.148;7.940;2023-04-01T01:02:50;98476.84;;;10.29
76583;BMP280;65462;52.148;7.940;2023-04-01T01:05:16;98485.50;;;10.29
76583;BMP280;65462;52.148;7.940;2023-04-01T01:08:04;98489.31;;;10.32
76583;BMP280;65462;52.148;7.940;2023-04-01T01:10:33;98480.22;;;10.29
76583;BMP280;65462;52.148;7.940;2023-04-01T01:13:30;98479.47;;;10.29
76583;BMP280;65462;52.148;7.940;2023-04-01T01:16:07;98480.63;;;10.28
76583;BMP280;65462;52.148;7.940;2023-04-01T01:18:46;98476.47;;;10.30
76583;BMP280;65462;52.148;7.940;2023-04-01T01:22:03;98475.69;;;10.26
76583;BMP280;65462;52.148;7.940;2023-04-01T01:37:43;98474.56;;;10.24
76583;BMP280;65462;52.148;7.940;2023-04-01T01:40:11;98473.41;;;10.21
76583;BMP280;65462;52.148;7.940;2023-04-01T01:42:41;98476.44;;;10.23
76583;BMP280;65462;52.148;7.940;2023-04-01T01:45:09;98474.94;;;10.22
76583;BMP280;65462;52.148;7.940;2023-04-01T01:47:37;98474.94;;;10.22
76583;BMP280;65462;52.148;7.940;2023-04-01T01:50:03;98474.16;;;10.22
76583;BMP280;65462;52.148;7.940;2023-04-01T01:52:30;98468.50;;;10.20
76583;BMP280;65462;52.148;7.940;2023-04-01T01:54:56;98465.88;;;10.20
76583;BMP280;65462;52.148;7.940;2023-04-01T01:57:31;98470.75;;;10.21
76583;BMP280;65462;52.148;7.940;2023-04-01T02:00:16;98471.16;;;10.20
76583;BMP280;65462;52.148;7.940;2023-04-01T02:02:44;98477.16;;;10.20
76583;BMP280;65462;52.148;7.940;2023-04-01T02:05:11;98465.13;;;10.19
76583;BMP280;65462;52.148;7.940;2023-04-01T02:07:45;98474.91;;;10.19
76583;BMP280;65462;52.148;7.940;2023-04-01T02:10:12;98475.28;;;10.17
76583;BMP280;65462;52.148;7.940;2023-04-01T02:12:38;98483.56;;;10.16
76583;BMP280;65462;52.148;7.940;2023-04-01T02:15:08;98473.34;;;10.14
76583;BMP280;65462;52.148;7.940;2023-04-01T02:17:35;98476.38;;;10.13
76583;BMP280;65462;52.148;7.940;2023-04-01T02:22:34;98469.97;;;10.14
76583;BMP280;65462;52.148;7.940;2023-04-01T02:25:10;98469.59;;;10.12
76583;BMP280;65462;52.148;7.940;2023-04-01T02:27:36;98469.59;;;10.12
76583;BMP280;65462;52.148;7.940;2023-04-01T02:30:02;98474.13;;;10.11
76583;BMP280;65462;52.148;7.940;2023-04-01T02:32:29;98472.25;;;10.12
76583;BMP280;65462;52.148;7.940;2023-04-01T02:34:56;98472.25;;;10.12
76583;BMP280;65462;52.148;7.940;2023-04-01T02:37:21;98471.84;;;10.13
76583;BMP280;65462;52.148;7.940;2023-04-01T02:39:47;98471.09;;;10.13
76583;BMP280;65462;52.148;7.940;2023-04-01T02:42:13;98475.59;;;10.12
76583;BMP280;65462;52.148;7.940;2023-04-01T02:44:39;98483.91;;;10.11
76583;BMP280;65462;52.148;7.940;2023-04-01T02:47:05;98477.88;;;10.10
76583;BMP280;65462;52.148;7.940;2023-04-01T02:49:30;98474.88;;;10.12
76583;BMP280;65462;52.148;7.940;2023-04-01T02:51:55;98472.25;;;10.12
76583;BMP280;65462;52.148;7.940;2023-04-01T02:54:21;98465.81;;;10.09
76583;BMP280;65462;52.148;7.940;2023-04-01T02:56:46;98474.88;;;10.12
76583;BMP280;65462;52.148;7.940;2023-04-01T02:59:11;98472.59;;;10.14
76583;BMP280;65462;52.148;7.940;2023-04-01T03:01:37;98474.88;;;10.12
76583;BMP280;65462;52.148;7.940;2023-04-01T03:04:02;98479.38;;;10.11
76583;BMP280;65462;52.148;7.940;2023-04-01T03:06:27;98479.34;;;10.08
76583;BMP280;65462;52.148;7.940;2023-04-01T03:08:53;98479.75;;;10.10
76583;BMP280;65462;52.148;7.940;2023-04-01T03:11:18;98475.59;;;10.09
76583;BMP280;65462;52.148;7.940;2023-04-01T03:13:43;98480.13;;;10.08
76583;BMP280;65462;52.148;7.940;2023-04-01T03:16:09;98481.63;;;10.09
76583;BMP280;65462;52.148;7.940;2023-04-01T03:18:34;98475.59;;;10.09
76583;BMP280;65462;52.148;7.940;2023-04-01T03:21:16;98481.63;;;10.09
76583;BMP280;65462;52.148;7.940;2023-04-01T03:23:42;98477.09;;;10.06
76583;BMP280;65462;52.148;7.940;2023-04-01T03:26:07;98469.56;;;10.08
76583;BMP280;65462;52.148;7.940;2023-04-01T03:28:33;98469.56;;;10.08
76583;BMP280;65462;52.148;7.940;2023-04-01T03:30:58;98472.56;;;10.07
76583;BMP280;65462;52.148;7.940;2023-04-01T03:33:23;98467.28;;;10.07
76583;BMP280;65462;52.148;7.940;2023-04-01T03:35:48;98469.19;;;10.06
76583;BMP280;65462;52.148;7.940;2023-04-01T03:38:17;98466.88;;;10.05
76583;BMP280;65462;52.148;7.940;2023-04-01T03:40:42;98466.88;;;10.05
76583;BMP280;65462;52.148;7.940;2023-04-01T03:43:08;98468.75;;;10.04
76583;BMP280;65462;52.148;7.940;2023-04-01T03:45:35;98471.41;;;10.04
76583;BMP280;65462;52.148;7.940;2023-04-01T03:48:00;98478.19;;;10.05
76583;BMP280;65462;52.148;7.940;2023-04-01T03:50:25;98475.56;;;10.05
76583;BMP280;65462;52.148;7.940;2023-04-01T03:52:51;98478.19;;;10.02
76583;BMP280;65462;52.148;7.940;2023-04-01T03:55:16;98480.84;;;10.02
76583;BMP280;65462;52.148;7.940;2023-04-01T03:57:43;98478.19;;;10.02
76583;BMP280;65462;52.148;7.940;2023-04-01T04:00:08;98479.72;;;10.03
76583;BMP280;65462;52.148;7.940;2023-04-01T04:02:34;98477.09;;;10.03
76583;BMP280;65462;52.148;7.940;2023-04-01T04:05:00;98477.09;;;10.03
76583;BMP280;65462;52.148;7.940;2023-04-01T04:07:25;98478.97;;;10.02
76583;BMP280;65462;52.148;7.940;2023-04-01T04:09:51;98482.34;;;10.03
76583;BMP280;65462;52.148;7.940;2023-04-01T04:12:16;98475.56;;;10.02
76583;BMP280;65462;52.148;7.940;2023-04-01T04:14:41;98478.19;;;10.02
76583;BMP280;65462;52.148;7.940;2023-04-01T04:17:06;98482.31;;;9.99
76583;BMP280;65462;52.148;7.940;2023-04-01T04:19:33;98481.22;;;10.00
76583;BMP280;65462;52.148;7.940;2023-04-01T04:21:59;98484.19;;;9.99
76583;BMP280;65462;52.148;7.940;2023-04-01T04:24:26;98489.81;;;9.97
76583;BMP280;65462;52.148;7.940;2023-04-01T04:26:52;98484.91;;;9.96
76583;BMP280;65462;52.148;7.940;2023-04-01T04:29:17;98487.56;;;9.96
76583;BMP280;65462;52.148;7.940;2023-04-01T04:31:43;98485.69;;;9.96
76583;BMP280;65462;52.148;7.940;2023-04-01T04:34:08;98489.81;;;9.97
76583;BMP280;65462;52.148;7.940;2023-04-01T04:36:33;98488.31;;;9.96
76583;BMP280;65462;52.148;7.940;2023-04-01T04:38:59;98490.19;;;9.96
76583;BMP280;65462;52.148;7.940;2023-04-01T04:41:27;98490.19;;;9.96
76583;BMP280;65462;52.148;7.940;2023-04-01T04:43:54;98491.31;;;9.95
76583;BMP280;65462;52.148;7.940;2023-04-01T04:46:21;98491.69;;;9.93
76583;BMP280;65462;52.148;7.940;2023-04-01T04:48:46;98498.84;;;9.93
76583;BMP280;65462;52.148;7.940;2023-04-01T04:51:16;98500.34;;;9.90
76583;BMP280;65462;52.148;7.940;2023-04-01T04:53:41;98501.44;;;9.89
76583;BMP280;65462;52.148;7.940;2023-04-01T04:56:06;98504.47;;;9.91
76583;BMP280;65462;52.148;7.940;2023-04-01T04:58:32;98498.44;;;9.91
76583;BMP280;65462;52.148;7.940;2023-04-01T05:00:57;98506.75;;;9.93
76583;BMP280;65462;52.148;7.940;2023-04-01T05:03:22;98502.59;;;9.92
76583;BMP280;65462;52.148;7.940;2023-04-01T05:05:51;98499.97;;;9.92
76583;BMP280;65462;52.148;7.940;2023-04-01T05:08:17;98507.13;;;9.91
76583;BMP280;65462;52.148;7.940;2023-04-01T05:10:42;98506.00;;;9.92
76583;BMP280;65462;52.148;7.940;2023-04-01T05:13:08;98503.72;;;9.91
76583;BMP280;65462;52.148;7.940;2023-04-01T05:15:33;98514.69;;;9.93
76583;BMP280;65462;52.148;7.940;2023-04-01T05:17:58;98506.34;;;9.91
76583;BMP280;65462;52.148;7.940;2023-04-01T05:20:24;98514.25;;;9.91
76583;BMP280;65462;52.148;7.940;2023-04-01T05:22:49;98513.91;;;9.92
76583;BMP280;65462;52.148;7.940;2023-04-01T05:25:15;98518.06;;;9.93
76583;BMP280;65462;52.148;7.940;2023-04-01T05:27:40;98523.69;;;9.92
76583;BMP280;65462;52.148;7.940;2023-04-01T05:30:06;98519.53;;;9.87
76583;BMP280;65462;52.148;7.940;2023-04-01T05:32:31;98522.59;;;9.93
76583;BMP280;65462;52.148;7.940;2023-04-01T05:34:57;98530.50;;;9.93
76583;BMP280;65462;52.148;7.940;2023-04-01T05:37:22;98534.25;;;9.95
76583;BMP280;65462;52.148;7.940;2023-04-01T05:39:48;98529.75;;;9.92
76583;BMP280;65462;52.148;7.940;2023-04-01T05:42:13;98528.94;;;9.88
76583;BMP280;65462;52.148;7.940;2023-04-01T05:44:38;98533.53;;;9.95
76583;BMP280;65462;52.148;7.940;2023-04-01T05:47:04;98535.34;;;9.91
76583;BMP280;65462;52.148;7.940;2023-04-01T05:49:30;98538.41;;;9.93
76583;BMP280;65462;52.148;7.940;2023-04-01T05:51:56;98531.97;;;9.90
76583;BMP280;65462;52.148;7.940;2023-04-01T05:54:21;98542.53;;;9.90
76583;BMP280;65462;52.148;7.940;2023-04-01T05:56:47;98538.00;;;9.91
76583;BMP280;65462;52.148;7.940;2023-04-01T05:59:12;98541.78;;;9.90
76583;BMP280;65462;52.148;7.940;2023-04-01T06:01:38;98547.44;;;9.92
76583;BMP280;65462;52.148;7.940;2023-04-01T06:04:04;98551.19;;;9.91
76583;BMP280;65462;52.148;7.940;2023-04-01T06:06:31;98548.16;;;9.89
76583;BMP280;65462;52.148;7.940;2023-04-01T06:09:12;98556.06;;;9.89
76583;BMP280;65462;52.148;7.940;2023-04-01T06:12:03;98557.22;;;9.91
76583;BMP280;65462;52.148;7.940;2023-04-01T06:14:57;98558.69;;;9.89
76583;BMP280;65462;52.148;7.940;2023-04-01T06:23:10;98565.91;;;9.92
76583;BMP280;65462;52.148;7.940;2023-04-01T06:26:11;98573.09;;;9.95
76583;BMP280;65462;52.148;7.940;2023-04-01T06:37:04;98585.94;;;10.00
76583;BMP280;65462;52.148;7.940;2023-04-01T06:42:31;98583.69;;;10.02
76583;BMP280;65462;52.148;7.940;2023-04-01T06:45:13;98588.63;;;10.03
76583;BMP280;65462;52.148;7.940;2023-04-01T06:53:28;98588.22;;;10.05
76583;BMP280;65462;52.148;7.940;2023-04-01T06:56:12;98591.25;;;10.07
76583;BMP280;65462;52.148;7.940;2023-04-01T06:58:46;98592.41;;;10.06
76583;BMP280;65462;52.148;7.940;2023-04-01T07:01:18;98589.38;;;10.07
76583;BMP280;65462;52.148;7.940;2023-04-01T07:04:11;98596.53;;;10.07
76583;BMP280;65462;52.148;7.940;2023-04-01T07:09:11;98603.00;;;10.09
76583;BMP280;65462;52.148;7.940;2023-04-01T07:11:38;98592.06;;;10.11
76583;BMP280;65462;52.148;7.940;2023-04-01T07:14:29;98603.75;;;10.13
76583;BMP280;65462;52.148;7.940;2023-04-01T07:17:15;98608.66;;;10.15
76583;BMP280;65462;52.148;7.940;2023-04-01T07:19:48;98603.78;;;10.17
76583;BMP280;65462;52.148;7.940;2023-04-01T07:22:48;98614.34;;;10.20
76583;BMP280;65462;52.148;7.940;2023-04-01T07:25:17;98610.22;;;10.23
76583;BMP280;65462;52.148;7.940;2023-04-01T07:27:44;98617.47;;;10.26
76583;BMP280;65462;52.148;7.940;2023-04-01T07:30:18;98619.72;;;10.27
76583;BMP280;65462;52.148;7.940;2023-04-01T07:32:47;98619.34;;;10.29
76583;BMP280;65462;52.148;7.940;2023-04-01T07:35:27;98617.47;;;10.33
76583;BMP280;65462;52.148;7.940;2023-04-01T07:38:15;98622.03;;;10.33
76583;BMP280;65462;52.148;7.940;2023-04-01T07:41:13;98620.53;;;10.35
76583;BMP280;65462;52.148;7.940;2023-04-01T07:44:18;98623.19;;;10.39
76583;BMP280;65462;52.148;7.940;2023-04-01T07:46:50;98625.13;;;10.42
76583;BMP280;65462;52.148;7.940;2023-04-01T07:49:24;98634.19;;;10.44
76583;BMP280;65462;52.148;7.940;2023-04-01T08:03:09;98647.88;;;10.60
76583;BMP280;65462;52.148;7.940;2023-04-01T08:08:43;98644.88;;;10.65
76583;BMP280;65462;52.148;7.940;2023-04-01T08:14:05;98649.44;;;10.72
76583;BMP280;65462;52.148;7.940;2023-04-01T08:22:09;98659.31;;;10.82
76583;BMP280;65462;52.148;7.940;2023-04-01T08:24:43;98663.88;;;10.85
76583;BMP280;65462;52.148;7.940;2023-04-01T08:27:39;98660.13;;;10.89
76583;BMP280;65462;52.148;7.940;2023-04-01T08:30:19;98661.28;;;10.92
76583;BMP280;65462;52.148;7.940;2023-04-01T08:32:52;98661.28;;;10.95
76583;BMP280;65462;52.148;7.940;2023-04-01T08:35:34;98667.72;;;11.01
76583;BMP280;65462;52.148;7.940;2023-04-01T08:38:10;98666.28;;;11.08
76583;BMP280;65462;52.148;7.940;2023-04-01T08:40:59;98667.81;;;11.12
76583;BMP280;65462;52.148;7.940;2023-04-01T08:43:36;98671.59;;;11.15
76583;BMP280;65462;52.148;7.940;2023-04-01T08:49:36;98670.50;;;11.26
76583;BMP280;65462;52.148;7.940;2023-04-01T08:54:46;98679.63;;;11.36
76583;BMP280;65462;52.148;7.940;2023-04-01T09:00:22;98679.66;;;11.46
76583;BMP280;65462;52.148;7.940;2023-04-01T09:17:48;98688.47;;;11.75
76583;BMP280;65462;52.148;7.940;2023-04-01T09:28:58;98694.94;;;11.95
76583;BMP280;65462;52.148;7.940;2023-04-01T09:36:46;98710.84;;;12.02
76583;BMP280;65462;52.148;7.940;2023-04-01T09:45:00;98721.81;;;12.18
76583;BMP280;65462;52.148;7.940;2023-04-01T09:56:40;98730.56;;;12.43
76583;BMP280;65462;52.148;7.940;2023-04-01T10:02:13;98730.94;;;12.53
76583;BMP280;65462;52.148;7.940;2023-04-01T10:13:24;98737.38;;;12.73
76583;BMP280;65462;52.148;7.940;2023-04-01T10:48:22;98771.31;;;13.45
76583;BMP280;65462;52.148;7.940;2023-04-01T10:53:35;98772.44;;;13.54
76583;BMP280;65462;52.148;7.940;2023-04-01T11:11:17;98782.59;;;13.70
76583;BMP280;65462;52.148;7.940;2023-04-01T11:22:28;98799.19;;;13.91
76583;BMP280;65462;52.148;7.940;2023-04-01T11:36:25;98808.13;;;14.19
76583;BMP280;65462;52.148;7.940;2023-04-01T11:39:01;98815.34;;;14.22
76583;BMP280;65462;52.148;7.940;2023-04-01T11:41:37;98816.06;;;14.26
76583;BMP280;65462;52.148;7.940;2023-04-01T11:44:20;98818.31;;;14.31
76583;BMP280;65462;52.148;7.940;2023-04-01T11:49:49;98828.88;;;14.45
76583;BMP280;65462;52.148;7.940;2023-04-01T11:55:23;98829.91;;;14.58
76583;BMP280;65462;52.148;7.940;2023-04-01T11:58:12;98837.84;;;14.65
76583;BMP280;65462;52.148;7.940;2023-04-01T12:01:09;98840.41;;;14.72
76583;BMP280;65462;52.148;7.940;2023-04-01T12:04:03;98854.44;;;14.79
76583;BMP280;65462;52.148;7.940;2023-04-01T12:09:11;98855.13;;;14.87
76583;BMP280;65462;52.148;7.940;2023-04-01T12:14:16;98866.50;;;14.91
76583;BMP280;65462;52.148;7.940;2023-04-01T12:19:39;98864.53;;;14.99
76583;BMP280;65462;52.148;7.940;2023-04-01T12:22:18;98870.19;;;15.04
76583;BMP280;65462;52.148;7.940;2023-04-01T12:24:49;98870.53;;;15.06
76583;BMP280;65462;52.148;7.940;2023-04-01T12:33:35;98882.22;;;15.19
76583;BMP280;65462;52.148;7.940;2023-04-01T12:36:19;98893.59;;;15.20
76583;BMP280;65462;52.148;7.940;2023-04-01T12:42:36;98901.22;;;15.18
76583;BMP280;65462;52.148;7.940;2023-04-01T12:45:12;98905.06;;;15.13
76583;BMP280;65462;52.148;7.940;2023-04-01T12:58:20;98921.16;;;14.96
76583;BMP280;65462;52.148;7.940;2023-04-01T13:09:06;98933.75;;;14.92
76583;BMP280;65462;52.148;7.940;2023-04-01T13:11:53;98931.44;;;14.90
76583;BMP280;65462;52.148;7.940;2023-04-01T13:14:54;98942.09;;;14.90
76583;BMP280;65462;52.148;7.940;2023-04-01T13:17:36;98940.59;;;14.89
76583;BMP280;65462;52.148;7.940;2023-04-01T13:20:49;98944.00;;;14.90
76583;BMP280;65462;52.148;7.940;2023-04-01T13:23:18;98950.06;;;14.90
76583;BMP280;65462;52.148;7.940;2023-04-01T13:28:34;98959.59;;;14.88
76583;BMP280;65462;52.148;7.940;2023-04-01T13:36:58;98959.22;;;14.89
76583;BMP280;65462;52.148;7.940;2023-04-01T13:39:39;98954.25;;;14.91
76583;BMP280;65462;52.148;7.940;2023-04-01T13:42:23;98954.97;;;14.95
76583;BMP280;65462;52.148;7.940;2023-04-01T13:44:56;98965.22;;;14.97
76583;BMP280;65462;52.148;7.940;2023-04-01T13:47:32;98977.03;;;14.96
76583;BMP280;65462;52.148;7.940;2023-04-01T13:53:11;98980.84;;;14.91
76583;BMP280;65462;52.148;7.940;2023-04-01T14:03:58;98984.34;;;14.74
76583;BMP280;65462;52.148;7.940;2023-04-01T14:20:54;99015.59;;;14.56
76583;BMP280;65462;52.148;7.940;2023-04-01T14:23:41;99023.22;;;14.50
76583;BMP280;65462;52.148;7.940;2023-04-01T14:26:22;99014.50;;;14.39
76583;BMP280;65462;52.148;7.940;2023-04-01T14:31:48;99025.97;;;14.22
76583;BMP280;65462;52.148;7.940;2023-04-01T14:34:34;99038.50;;;14.15
76583;BMP280;65462;52.148;7.940;2023-04-01T14:40:26;99039.31;;;13.87
76583;BMP280;65462;52.148;7.940;2023-04-01T14:46:12;99040.81;;;13.67
76583;BMP280;65462;52.148;7.940;2023-04-01T14:54:17;99058.22;;;13.43
76583;BMP280;65462;52.148;7.940;2023-04-01T14:57:12;99059.72;;;13.41
76583;BMP280;65462;52.148;7.940;2023-04-01T14:59:47;99063.50;;;13.36
76583;BMP280;65462;52.148;7.940;2023-04-01T15:05:10;99064.97;;;13.26
76583;BMP280;65462;52.148;7.940;2023-04-01T15:07:52;99074.09;;;13.22
76583;BMP280;65462;52.148;7.940;2023-04-01T15:15:46;99087.66;;;13.06
76583;BMP280;65462;52.148;7.940;2023-04-01T15:21:13;99107.34;;;13.02
76583;BMP280;65462;52.148;7.940;2023-04-01T15:23:52;99109.19;;;12.94
76583;BMP280;65462;52.148;7.940;2023-04-01T15:32:00;99117.81;;;12.74
76583;BMP280;65462;52.148;7.940;2023-04-01T15:40:40;99132.09;;;12.59
76583;BMP280;65462;52.148;7.940;2023-04-01T15:46:26;99141.88;;;12.47
76583;BMP280;65462;52.148;7.940;2023-04-01T15:52:12;99147.16;;;12.44
76583;BMP280;65462;52.148;7.940;2023-04-01T15:58:05;99147.50;;;12.42
76583;BMP280;65462;52.148;7.940;2023-04-01T16:00:49;99155.09;;;12.44
76583;BMP280;65462;52.148;7.940;2023-04-01T16:05:57;99164.84;;;12.36
76583;BMP280;65462;52.148;7.940;2023-04-01T16:21:51;99195.78;;;12.25
76583;BMP280;65462;52.148;7.940;2023-04-01T16:29:33;99223.66;;;12.12
76583;BMP280;65462;52.148;7.940;2023-04-01T16:32:15;99222.47;;;12.06
76583;BMP280;65462;52.148;7.940;2023-04-01T16:35:10;99223.88;;;12.00
76583;BMP280;65462;52.148;7.940;2023-04-01T16:37:50;99227.25;;;11.97
76583;BMP280;65462;52.148;7.940;2023-04-01T16:45:24;99247.41;;;11.72
76583;BMP280;65462;52.148;7.940;2023-04-01T16:47:58;99251.88;;;11.68
76583;BMP280;65462;52.148;7.940;2023-04-01T16:50:52;99266.50;;;11.58
76583;BMP280;65462;52.148;7.940;2023-04-01T16:53:34;99274.72;;;11.53
76583;BMP280;65462;52.148;7.940;2023-04-01T17:01:08;99290.78;;;11.38
76583;BMP280;65462;52.148;7.940;2023-04-01T17:03:44;99292.56;;;11.30
76583;BMP280;65462;52.148;7.940;2023-04-01T17:06:25;99296.66;;;11.28
76583;BMP280;65462;52.148;7.940;2023-04-01T17:09:03;99306.13;;;11.29
76583;BMP280;65462;52.148;7.940;2023-04-01T17:11:39;99307.50;;;11.19
76583;BMP280;65462;52.148;7.940;2023-04-01T17:14:14;99321.06;;;11.18
76583;BMP280;65462;52.148;7.940;2023-04-01T17:25:23;99344.78;;;10.91
76583;BMP280;65462;52.148;7.940;2023-04-01T17:28:10;99353.72;;;10.83
76583;BMP280;65462;52.148;7.940;2023-04-01T17:30:43;99370.25;;;10.80
76583;BMP280;65462;52.148;7.940;2023-04-01T17:33:28;99373.63;;;10.77
76583;BMP280;65462;52.148;7.940;2023-04-01T17:39:34;99389.72;;;10.72
76583;BMP280;65462;52.148;7.940;2023-04-01T17:42:20;99398.19;;;10.62
76583;BMP280;65462;52.148;7.940;2023-04-01T17:44:56;99405.75;;;10.60
76583;BMP280;65462;52.148;7.940;2023-04-01T17:52:47;99425.53;;;10.51
76583;BMP280;65462;52.148;7.940;2023-04-01T18:04:08;99447.19;;;10.41
76583;BMP280;65462;52.148;7.940;2023-04-01T18:06:47;99456.81;;;10.33
76583;BMP280;65462;52.148;7.940;2023-04-01T18:12:16;99469.97;;;10.14
76583;BMP280;65462;52.148;7.940;2023-04-01T18:17:24;99493.91;;;10.05
76583;BMP280;65462;52.148;7.940;2023-04-01T18:27:53;99515.78;;;9.90
76583;BMP280;65462;52.148;7.940;2023-04-01T18:30:28;99524.31;;;9.84
76583;BMP280;65462;52.148;7.940;2023-04-01T18:35:47;99530.75;;;9.71
76583;BMP280;65462;52.148;7.940;2023-04-01T18:38:25;99532.22;;;9.68
76583;BMP280;65462;52.148;7.940;2023-04-01T18:41:12;99545.72;;;9.67
76583;BMP280;65462;52.148;7.940;2023-04-01T18:43:53;99560.22;;;9.60
76583;BMP280;65462;52.148;7.940;2023-04-01T18:46:49;99565.16;;;9.62
76583;BMP280;65462;52.148;7.940;2023-04-01T18:49:21;99562.97;;;9.64
76583;BMP280;65462;52.148;7.940;2023-04-01T18:51:58;99574.09;;;9.57
76583;BMP280;65462;52.148;7.940;2023-04-01T18:54:32;99581.81;;;9.50
76583;BMP280;65462;52.148;7.940;2023-04-01T18:57:04;99586.66;;;9.48
76583;BMP280;65462;52.148;7.940;2023-04-01T18:59:39;99597.88;;;9.45
76583;BMP280;65462;52.148;7.940;2023-04-01T19:02:29;99606.41;;;9.42
76583;BMP280;65462;52.148;7.940;2023-04-01T19:05:18;99612.72;;;9.38
76583;BMP280;65462;52.148;7.940;2023-04-01T19:07:50;99614.84;;;9.32
76583;BMP280;65462;52.148;7.940;2023-04-01T19:10:37;99619.00;;;9.21
76583;BMP280;65462;52.148;7.940;2023-04-01T19:15:57;99640.88;;;9.22
76583;BMP280;65462;52.148;7.940;2023-04-01T19:18:27;99643.63;;;9.13
76583;BMP280;65462;52.148;7.940;2023-04-01T19:20:59;99659.97;;;9.07
76583;BMP280;65462;52.148;7.940;2023-04-01T19:23:45;99659.63;;;9.08
76583;BMP280;65462;52.148;7.940;2023-04-01T19:29:24;99662.31;;;8.96
76583;BMP280;65462;52.148;7.940;2023-04-01T19:31:53;99667.44;;;8.93
76583;BMP280;65462;52.148;7.940;2023-04-01T19:37:27;99672.84;;;8.84
76583;BMP280;65462;52.148;7.940;2023-04-01T19:43:08;99680.16;;;8.78
76583;BMP280;65462;52.148;7.940;2023-04-01T19:45:44;99698.16;;;8.76
76583;BMP280;65462;52.148;7.940;2023-04-01T19:53:44;99710.53;;;8.64
76583;BMP280;65462;52.148;7.940;2023-04-01T19:56:23;99710.94;;;8.54
76583;BMP280;65462;52.148;7.940;2023-04-01T19:58:58;99720.41;;;8.55
76583;BMP280;65462;52.148;7.940;2023-04-01T20:01:40;99755.06;;;8.57
76583;BMP280;65462;52.148;7.940;2023-04-01T20:04:37;99740.84;;;8.49
76583;BMP280;65462;52.148;7.940;2023-04-01T20:07:18;99754.16;;;8.53
76583;BMP280;65462;52.148;7.940;2023-04-01T20:09:55;99757.13;;;8.51
76583;BMP280;65462;52.148;7.940;2023-04-01T20:17:56;99773.38;;;8.33
76583;BMP280;65462;52.148;7.940;2023-04-01T20:20:26;99786.72;;;8.27
76583;BMP280;65462;52.148;7.940;2023-04-01T20:26:39;99793.53;;;8.29
76583;BMP280;65462;52.148;7.940;2023-04-01T20:28:47;99808.13;;;8.26
76583;BMP280;65462;52.148;7.940;2023-04-01T20:31:24;99798.53;;;8.21
76583;BMP280;65462;52.148;7.940;2023-04-01T20:34:01;99816.69;;;8.14
76583;BMP280;65462;52.148;7.940;2023-04-01T20:36:45;99809.56;;;8.15
76583;BMP280;65462;52.148;7.940;2023-04-01T20:42:52;99822.00;;;8.06
76583;BMP280;65462;52.148;7.940;2023-04-01T20:50:50;99840.13;;;7.99
76583;BMP280;65462;52.148;7.940;2023-04-01T20:53:33;99852.22;;;8.00
76583;BMP280;65462;52.148;7.940;2023-04-01T20:58:46;99856.28;;;7.89
76583;BMP280;65462;52.148;7.940;2023-04-01T21:04:22;99877.16;;;7.85
76583;BMP280;65462;52.148;7.940;2023-04-01T21:07:10;99880.44;;;7.82
76583;BMP280;65462;52.148;7.940;2023-04-01T21:12:56;99900.44;;;7.75
76583;BMP280;65462;52.148;7.940;2023-04-01T21:20:54;99912.66;;;7.71
76583;BMP280;65462;52.148;7.940;2023-04-01T21:26:04;99921.31;;;7.63
76583;BMP280;65462;52.148;7.940;2023-04-01T21:28:59;99930.34;;;7.62
76583;BMP280;65462;52.148;7.940;2023-04-01T21:31:48;99946.41;;;7.60
76583;BMP280;65462;52.148;7.940;2023-04-01T21:35:02;99935.28;;;7.54
76583;BMP280;65462;52.148;7.940;2023-04-01T21:42:49;99957.25;;;7.50
76583;BMP280;65462;52.148;7.940;2023-04-01T21:56:41;99992.94;;;7.34
76583;BMP280;65462;52.148;7.940;2023-04-01T22:02:26;99998.50;;;7.24
76583;BMP280;65462;52.148;7.940;2023-04-01T22:08:14;100008.56;;;7.22
76583;BMP280;65462;52.148;7.940;2023-04-01T22:10:48;100019.66;;;7.19
76583;BMP280;65462;52.148;7.940;2023-04-01T22:13:31;100035.28;;;7.15
76583;BMP280;65462;52.148;7.940;2023-04-01T22:18:49;100044.38;;;7.18
76583;BMP280;65462;52.148;7.940;2023-04-01T22:21:55;100041.31;;;7.16
76583;BMP280;65462;52.148;7.940;2023-04-01T22:27:07;100051.66;;;7.04
76583;BMP280;65462;52.148;7.940;2023-04-01T22:29:46;100052.88;;;7.06
76583;BMP280;65462;52.148;7.940;2023-04-01T22:32:27;100062.72;;;6.92
76583;BMP280;65462;52.148;7.940;2023-04-01T22:38:03;100057.44;;;6.92
76583;BMP280;65462;52.148;7.940;2023-04-01T22:40:34;100071.53;;;6.87
76583;BMP280;65462;52.148;7.940;2023-04-01T22:43:08;100079.41;;;6.87
76583;BMP280;65462;52.148;7.940;2023-04-01T22:45:58;100080.34;;;6.91
76583;BMP280;65462;52.148;7.940;2023-04-01T22:48:36;100085.53;;;6.83